sensor_id;sensor_type;location;lat;lon;timestamp;temperature;humidity
22526;DHT22;11429;50.842;4.386;2023-04-03T00:01:12;6.30;99.90
22526;DHT22;11429;50.842;4.386;2023-04-03T00:03:37;6.30;99.90
22526;DHT22;11429;50.842;4.386;2023-04-03T00:06:04;6.30;99.90
22526;DHT22;11429;50.842;4.386;2023-04-03T00:08:32;6.10;99.90
22526;DHT22;11429;50.842;4.386;2023-04-03T00:10:58;6.00;99.90
22526;DHT22;11429;50.842;4.386;2023-04-03T00:13:24;6.10;99.90
22526;DHT22;11429;50.842;4.386;2023-04-03T00:15:51;6.20;99.90
22526;DHT22;11429;50.842;4.386;2023-04-03T00:18:17;6.10;99.90
22526;DHT22;11429;50.842;4.386;2023-04-03T00:20:42;5.90;99.90
22526;DHT22;11429;50.842;4.386;2023-04-03T00:23:08;5.70;99.90
22526;DHT22;11429;50.842;4.386;2023-04-03T00:25:34;5.80;99.90
22526;DHT22;11429;50.842;4.386;2023-04-03T00:28:00;5.70;99.90
22526;DHT22;11429;50.842;4.386;2023-04-03T00:30:26;5.70;99.90
22526;DHT22;11429;50.842;4.386;2023-04-03T00:32:52;6.00;99.90
22526;DHT22;11429;50.842;4.386;2023-04-03T00:35:20;6.00;99.90
22526;DHT22;11429;50.842;4.386;2023-04-03T00:37:46;5.70;99.90
22526;DHT22;11429;50.842;4.386;2023-04-03T00:40:14;5.70;99.90
22526;DHT22;11429;50.842;4.386;2023-04-03T00:42:42;5.80;99.90
22526;DHT22;11429;50.842;4.386;2023-04-03T00:47:38;5.80;99.90
22526;DHT22;11429;50.842;4.386;2023-04-03T00:50:04;5.80;99.90
22526;DHT22;11429;50.842;4.386;2023-04-03T00:52:31;5.70;99.90
22526;DHT22;11429;50.842;4.386;2023-04-03T00:55:00;5.70;99.90
22526;DHT22;11429;50.842;4.386;2023-04-03T00:57:28;5.50;99.90
22526;DHT22;11429;50.842;4.386;2023-04-03T00:59:59;5.60;99.90
22526;DHT22;11429;50.842;4.386;2023-04-03T01:02:27;5.50;99.90
22526;DHT22;11429;50.842;4.386;2023-04-03T01:04:53;5.60;99.90
22526;DHT22;11429;50.842;4.386;2023-04-03T01:07:22;5.60;99.90
22526;DHT22;11429;50.842;4.386;2023-04-03T01:09:51;5.70;99.90
22526;DHT22;11429;50.842;4.386;2023-04-03T01:12:23;5.60;99.90
22526;DHT22;11429;50.842;4.386;2023-04-03T01:14:51;5.70;99.90
22526;DHT22;11429;50.842;4.386;2023-04-03T01:25:27;5.40;99.90
22526;DHT22;11429;50.842;4.386;2023-04-03T01:27:53;5.20;99.90
22526;DHT22;11429;50.842;4.386;2023-04-03T01:30:20;5.20;99.90
22526;DHT22;11429;50.842;4.386;2023-04-03T01:32:46;5.10;99.90
22526;DHT22;11429;50.842;4.386;2023-04-03T01:35:12;5.20;99.90
22526;DHT22;11429;50.842;4.386;2023-04-03T01:37:38;5.40;99.90
22526;DHT22;11429;50.842;4.386;2023-04-03T01:40:04;5.30;99.90
22526;DHT22;11429;50.842;4.386;2023-04-03T01:42:31;5.20;99.90
22526;DHT22;11429;50.842;4.386;2023-04-03T01:44:56;5.30;99.90
22526;DHT22;11429;50.842;4.386;2023-04-03T01:47:22;5.10;99.90
22526;DHT22;11429;50.842;4.386;2023-04-03T01:49:48;5.20;99.90
22526;DHT22;11429;50.842;4.386;2023-04-03T01:52:14;5.40;99.90
22526;DHT22;11429;50.842;4.386;2023-04-03T01:54:39;5.30;99.90
22526;DHT22;11429;50.842;4.386;2023-04-03T01:57:05;5.30;99.90
22526;DHT22;11429;50.842;4.386;2023-04-03T01:59:31;5.10;99.90
22526;DHT22;11429;50.842;4.386;2023-04-03T02:01:56;5.00;99.90
22526;DHT22;11429;50.842;4.386;2023-04-03T02:04:22;5.00;99.90
22526;DHT22;11429;50.842;4.386;2023-04-03T02:06:48;4.90;99.90
22526;DHT22;11429;50.842;4.386;2023-04-03T02:09:14;4.80;99.90
22526;DHT22;11429;50.842;4.386;2023-04-03T02:11:40;4.70;99.90
22526;DHT22;11429;50.842;4.386;2023-04-03T02:14:05;4.60;99.90
22526;DHT22;11429;50.842;4.386;2023-04-03T02:16:31;4.70;99.90
22526;DHT22;11429;50.842;4.386;2023-04-03T02:18:57;4.60;99.90
22526;DHT22;11429;50.842;4.386;2023-04-03T02:21:23;4.80;99.90
22526;DHT22;11429;50.842;4.386;2023-04-03T02:23:49;4.80;99.90
22526;DHT22;11429;50.842;4.386;2023-04-03T02:26:15;4.70;99.90
22526;DHT22;11429;50.842;4.386;2023-04-03T02:28:42;4.70;99.90
22526;DHT22;11429;50.842;4.386;2023-04-03T02:31:08;4.60;99.90
22526;DHT22;11429;50.842;4.386;2023-04-03T02:33:35;4.40;99.90
22526;DHT22;11429;50.842;4.386;2023-04-03T02:36:05;4.50;99.90
22526;DHT22;11429;50.842;4.386;2023-04-03T02:38:31;4.40;99.90
22526;DHT22;11429;50.842;4.386;2023-04-03T02:41:05;4.40;99.90
22526;DHT22;11429;50.842;4.386;2023-04-03T02:43:32;4.40;99.90
22526;DHT22;11429;50.842;4.386;2023-04-03T02:45:57;4.50;99.90
22526;DHT22;11429;50.842;4.386;2023-04-03T02:48:23;4.50;99.90
22526;DHT22;11429;50.842;4.386;2023-04-03T02:50:49;4.40;99.90
22526;DHT22;11429;50.842;4.386;2023-04-03T02:53:15;4.60;99.90
22526;DHT22;11429;50.842;4.386;2023-04-03T02:55:41;4.70;99.90
22526;DHT22;11429;50.842;4.386;2023-04-03T02:58:07;4.70;99.90
22526;DHT22;11429;50.842;4.386;2023-04-03T03:00:33;4.80;99.90
22526;DHT22;11429;50.842;4.386;2023-04-03T03:02:59;4.70;99.90
22526;DHT22;11429;50.842;4.386;2023-04-03T03:05:25;4.60;99.90
22526;DHT22;11429;50.842;4.386;2023-04-03T03:07:51;4.50;99.90
22526;DHT22;11429;50.842;4.386;2023-04-03T03:10:17;4.70;99.90
22526;DHT22;11429;50.842;4.386;2023-04-03T03:12:43;4.80;99.90
22526;DHT22;11429;50.842;4.386;2023-04-03T03:15:09;4.70;99.90
22526;DHT22;11429;50.842;4.386;2023-04-03T03:17:35;4.70;99.90
22526;DHT22;11429;50.842;4.386;2023-04-03T03:20:02;4.70;99.90
22526;DHT22;11429;50.842;4.386;2023-04-03T03:22:28;4.60;99.90
22526;DHT22;11429;50.842;4.386;2023-04-03T03:24:54;4.60;99.90
22526;DHT22;11429;50.842;4.386;2023-04-03T03:27:20;4.50;99.90
22526;DHT22;11429;50.842;4.386;2023-04-03T03:29:46;4.60;99.90
22526;DHT22;11429;50.842;4.386;2023-04-03T03:32:12;4.60;99.90
22526;DHT22;11429;50.842;4.386;2023-04-03T03:34:38;4.60;99.90
22526;DHT22;11429;50.842;4.386;2023-04-03T03:37:04;4.60;99.90
22526;DHT22;11429;50.842;4.386;2023-04-03T03:39:30;4.70;99.90
22526;DHT22;11429;50.842;4.386;2023-04-03T03:41:55;4.30;99.90
22526;DHT22;11429;50.842;4.386;2023-04-03T03:44:21;4.50;99.90
22526;DHT22;11429;50.842;4.386;2023-04-03T03:46:47;4.50;99.90
22526;DHT22;11429;50.842;4.386;2023-04-03T03:49:12;4.20;99.90
22526;DHT22;11429;50.842;4.386;2023-04-03T03:51:39;4.10;99.90
22526;DHT22;11429;50.842;4.386;2023-04-03T03:54:05;4.00;99.90
22526;DHT22;11429;50.842;4.386;2023-04-03T03:56:31;4.10;99.90
22526;DHT22;11429;50.842;4.386;2023-04-03T03:58:57;4.20;99.90
22526;DHT22;11429;50.842;4.386;2023-04-03T04:01:23;4.30;99.90
22526;DHT22;11429;50.842;4.386;2023-04-03T04:03:50;4.40;99.90
22526;DHT22;11429;50.842;4.386;2023-04-03T04:06:16;4.40;99.90
22526;DHT22;11429;50.842;4.386;2023-04-03T04:08:42;4.30;99.90
22526;DHT22;11429;50.842;4.386;2023-04-03T04:11:08;4.30;99.90
22526;DHT22;11429;50.842;4.386;2023-04-03T04:13:33;4.20;99.90
22526;DHT22;11429;50.842;4.386;2023-04-03T04:15:59;4.10;99.90
22526;DHT22;11429;50.842;4.386;2023-04-03T04:18:25;4.00;99.90
22526;DHT22;11429;50.842;4.386;2023-04-03T04:20:50;4.20;99.90
22526;DHT22;11429;50.842;4.386;2023-04-03T04:23:17;4.40;99.90
22526;DHT22;11429;50.842;4.386;2023-04-03T04:25:47;4.40;99.90
22526;DHT22;11429;50.842;4.386;2023-04-03T04:28:13;4.20;99.90
22526;DHT22;11429;50.842;4.386;2023-04-03T04:30:39;4.30;99.90
22526;DHT22;11429;50.842;4.386;2023-04-03T04:33:05;4.40;99.90
22526;DHT22;11429;50.842;4.386;2023-04-03T04:35:31;4.40;99.90
22526;DHT22;11429;50.842;4.386;2023-04-03T04:37:56;4.40;99.90
22526;DHT22;11429;50.842;4.386;2023-04-03T04:40:22;4.30;99.90
22526;DHT22;11429;50.842;4.386;2023-04-03T04:42:48;4.40;99.90
22526;DHT22;11429;50.842;4.386;2023-04-03T04:45:13;4.40;99.90
22526;DHT22;11429;50.842;4.386;2023-04-03T04:47:40;4.20;99.90
22526;DHT22;11429;50.842;4.386;2023-04-03T04:50:06;4.20;99.90
22526;DHT22;11429;50.842;4.386;2023-04-03T04:52:32;4.20;99.90
22526;DHT22;11429;50.842;4.386;2023-04-03T04:54:58;4.20;99.90
22526;DHT22;11429;50.842;4.386;2023-04-03T04:57:23;4.00;99.90
22526;DHT22;11429;50.842;4.386;2023-04-03T04:59:49;4.00;99.90
22526;DHT22;11429;50.842;4.386;2023-04-03T05:02:15;4.00;99.90
22526;DHT22;11429;50.842;4.386;2023-04-03T05:04:41;4.10;99.90
22526;DHT22;11429;50.842;4.386;2023-04-03T05:07:07;3.90;99.90
22526;DHT22;11429;50.842;4.386;2023-04-03T05:09:32;3.60;99.90
22526;DHT22;11429;50.842;4.386;2023-04-03T05:11:58;3.50;99.90
22526;DHT22;11429;50.842;4.386;2023-04-03T05:14:24;3.40;99.90
22526;DHT22;11429;50.842;4.386;2023-04-03T05:16:50;3.30;99.90
22526;DHT22;11429;50.842;4.386;2023-04-03T05:19:22;3.50;99.90
22526;DHT22;11429;50.842;4.386;2023-04-03T05:21:48;3.60;99.90
22526;DHT22;11429;50.842;4.386;2023-04-03T05:24:16;3.80;99.90
22526;DHT22;11429;50.842;4.386;2023-04-03T05:26:42;4.10;99.90
22526;DHT22;11429;50.842;4.386;2023-04-03T05:29:08;4.30;99.90
22526;DHT22;11429;50.842;4.386;2023-04-03T05:31:34;4.30;99.90
22526;DHT22;11429;50.842;4.386;2023-04-03T05:34:00;4.10;99.90
22526;DHT22;11429;50.842;4.386;2023-04-03T05:36:25;4.00;99.90
22526;DHT22;11429;50.842;4.386;2023-04-03T05:38:52;4.10;99.90
22526;DHT22;11429;50.842;4.386;2023-04-03T05:41:18;4.20;99.90
22526;DHT22;11429;50.842;4.386;2023-04-03T05:43:44;4.30;99.90
22526;DHT22;11429;50.842;4.386;2023-04-03T05:46:14;4.30;99.90
22526;DHT22;11429;50.842;4.386;2023-04-03T05:48:41;4.00;99.90
22526;DHT22;11429;50.842;4.386;2023-04-03T05:51:07;3.90;99.90
22526;DHT22;11429;50.842;4.386;2023-04-03T05:53:36;4.00;99.90
22526;DHT22;11429;50.842;4.386;2023-04-03T05:56:04;4.10;99.90
22526;DHT22;11429;50.842;4.386;2023-04-03T05:58:30;4.40;99.90
22526;DHT22;11429;50.842;4.386;2023-04-03T06:00:56;4.80;99.90
22526;DHT22;11429;50.842;4.386;2023-04-03T06:03:23;5.10;99.90
22526;DHT22;11429;50.842;4.386;2023-04-03T06:05:48;5.60;99.90
22526;DHT22;11429;50.842;4.386;2023-04-03T06:08:14;6.70;99.90
22526;DHT22;11429;50.842;4.386;2023-04-03T06:10:40;7.70;99.90
22526;DHT22;11429;50.842;4.386;2023-04-03T06:13:06;8.80;99.90
22526;DHT22;11429;50.842;4.386;2023-04-03T06:15:32;10.40;99.90
22526;DHT22;11429;50.842;4.386;2023-04-03T06:17:59;10.90;99.90
22526;DHT22;11429;50.842;4.386;2023-04-03T06:20:25;12.40;99.90
22526;DHT22;11429;50.842;4.386;2023-04-03T06:22:51;13.50;99.90
22526;DHT22;11429;50.842;4.386;2023-04-03T06:25:17;13.60;99.90
22526;DHT22;11429;50.842;4.386;2023-04-03T06:27:44;13.50;99.90
22526;DHT22;11429;50.842;4.386;2023-04-03T06:30:11;13.80;99.90
22526;DHT22;11429;50.842;4.386;2023-04-03T06:32:37;13.30;99.90
22526;DHT22;11429;50.842;4.386;2023-04-03T06:35:04;13.40;99.90
22526;DHT22;11429;50.842;4.386;2023-04-03T06:37:30;13.80;99.90
22526;DHT22;11429;50.842;4.386;2023-04-03T06:39:56;13.80;99.90
22526;DHT22;11429;50.842;4.386;2023-04-03T06:42:22;13.30;99.90
22526;DHT22;11429;50.842;4.386;2023-04-03T06:44:48;12.70;99.90
22526;DHT22;11429;50.842;4.386;2023-04-03T06:47:16;12.00;99.90
22526;DHT22;11429;50.842;4.386;2023-04-03T06:49:45;12.40;99.90
22526;DHT22;11429;50.842;4.386;2023-04-03T06:52:10;12.50;99.90
22526;DHT22;11429;50.842;4.386;2023-04-03T06:54:37;12.60;99.90
22526;DHT22;11429;50.842;4.386;2023-04-03T06:57:03;12.80;99.90
22526;DHT22;11429;50.842;4.386;2023-04-03T06:59:29;13.40;99.90
22526;DHT22;11429;50.842;4.386;2023-04-03T07:01:55;13.60;99.90
22526;DHT22;11429;50.842;4.386;2023-04-03T07:04:21;12.90;99.90
22526;DHT22;11429;50.842;4.386;2023-04-03T07:06:49;12.50;99.90
22526;DHT22;11429;50.842;4.386;2023-04-03T07:09:15;12.10;99.90
22526;DHT22;11429;50.842;4.386;2023-04-03T07:11:40;11.30;99.90
22526;DHT22;11429;50.842;4.386;2023-04-03T07:14:08;11.40;99.90
22526;DHT22;11429;50.842;4.386;2023-04-03T07:16:35;11.00;99.90
22526;DHT22;11429;50.842;4.386;2023-04-03T07:19:01;11.30;99.90
22526;DHT22;11429;50.842;4.386;2023-04-03T07:21:27;12.30;99.90
22526;DHT22;11429;50.842;4.386;2023-04-03T07:23:54;12.50;99.90
22526;DHT22;11429;50.842;4.386;2023-04-03T07:26:20;12.20;99.90
22526;DHT22;11429;50.842;4.386;2023-04-03T07:28:47;12.10;99.90
22526;DHT22;11429;50.842;4.386;2023-04-03T07:31:14;11.70;99.90
22526;DHT22;11429;50.842;4.386;2023-04-03T07:33:42;11.00;99.90
22526;DHT22;11429;50.842;4.386;2023-04-03T07:36:08;11.60;99.90
22526;DHT22;11429;50.842;4.386;2023-04-03T07:38:35;12.30;99.90
22526;DHT22;11429;50.842;4.386;2023-04-03T07:41:02;12.20;99.90
22526;DHT22;11429;50.842;4.386;2023-04-03T07:43:28;12.50;99.90
22526;DHT22;11429;50.842;4.386;2023-04-03T07:45:54;11.80;99.90
22526;DHT22;11429;50.842;4.386;2023-04-03T07:48:22;11.10;99.90
22526;DHT22;11429;50.842;4.386;2023-04-03T07:50:48;10.70;99.90
22526;DHT22;11429;50.842;4.386;2023-04-03T07:53:14;11.40;99.90
22526;DHT22;11429;50.842;4.386;2023-04-03T07:55:40;12.00;99.90
22526;DHT22;11429;50.842;4.386;2023-04-03T07:58:14;11.60;99.90
22526;DHT22;11429;50.842;4.386;2023-04-03T08:00:40;12.40;99.90
22526;DHT22;11429;50.842;4.386;2023-04-03T08:03:07;12.60;99.90
22526;DHT22;11429;50.842;4.386;2023-04-03T08:05:39;12.50;99.90
22526;DHT22;11429;50.842;4.386;2023-04-03T08:08:06;12.60;99.90
22526;DHT22;11429;50.842;4.386;2023-04-03T08:10:32;11.60;99.90
22526;DHT22;11429;50.842;4.386;2023-04-03T08:12:59;11.50;99.90
22526;DHT22;11429;50.842;4.386;2023-04-03T08:15:25;11.60;99.90
22526;DHT22;11429;50.842;4.386;2023-04-03T08:17:52;11.60;99.90
22526;DHT22;11429;50.842;4.386;2023-04-03T08:20:18;11.40;99.90
22526;DHT22;11429;50.842;4.386;2023-04-03T08:22:43;11.00;99.90
22526;DHT22;11429;50.842;4.386;2023-04-03T08:25:09;10.60;99.90
22526;DHT22;11429;50.842;4.386;2023-04-03T08:27:35;10.60;99.90
22526;DHT22;11429;50.842;4.386;2023-04-03T08:30:01;10.40;99.90
22526;DHT22;11429;50.842;4.386;2023-04-03T08:32:27;10.00;99.90
22526;DHT22;11429;50.842;4.386;2023-04-03T08:34:53;10.10;99.90
22526;DHT22;11429;50.842;4.386;2023-04-03T08:37:19;10.40;99.90
22526;DHT22;11429;50.842;4.386;2023-04-03T08:39:45;10.50;99.90
22526;DHT22;11429;50.842;4.386;2023-04-03T08:42:39;11.10;99.90
22526;DHT22;11429;50.842;4.386;2023-04-03T08:47:55;11.40;99.90
22526;DHT22;11429;50.842;4.386;2023-04-03T08:50:39;11.70;99.90
22526;DHT22;11429;50.842;4.386;2023-04-03T08:53:10;11.40;99.90
22526;DHT22;11429;50.842;4.386;2023-04-03T08:55:44;11.30;99.90
22526;DHT22;11429;50.842;4.386;2023-04-03T08:58:20;11.90;99.90
22526;DHT22;11429;50.842;4.386;2023-04-03T09:01:02;12.50;99.90
22526;DHT22;11429;50.842;4.386;2023-04-03T09:03:31;13.10;99.90
22526;DHT22;11429;50.842;4.386;2023-04-03T09:06:25;13.60;99.90
22526;DHT22;11429;50.842;4.386;2023-04-03T09:22:44;17.30;99.90
22526;DHT22;11429;50.842;4.386;2023-04-03T09:25:27;16.50;99.90
22526;DHT22;11429;50.842;4.386;2023-04-03T09:27:59;16.60;99.90
22526;DHT22;11429;50.842;4.386;2023-04-03T09:30:26;17.50;99.90
22526;DHT22;11429;50.842;4.386;2023-04-03T09:32:55;18.20;99.90
22526;DHT22;11429;50.842;4.386;2023-04-03T09:35:30;17.40;99.90
22526;DHT22;11429;50.842;4.386;2023-04-03T09:40:41;18.50;99.90
22526;DHT22;11429;50.842;4.386;2023-04-03T09:43:51;18.50;99.90
22526;DHT22;11429;50.842;4.386;2023-04-03T09:46:31;18.90;99.90
22526;DHT22;11429;50.842;4.386;2023-04-03T09:49:03;18.60;99.90
22526;DHT22;11429;50.842;4.386;2023-04-03T09:51:30;18.80;99.40
22526;DHT22;11429;50.842;4.386;2023-04-03T09:53:56;19.20;99.20
22526;DHT22;11429;50.842;4.386;2023-04-03T09:56:25;19.10;98.80
22526;DHT22;11429;50.842;4.386;2023-04-03T10:01:28;19.70;98.20
22526;DHT22;11429;50.842;4.386;2023-04-03T10:04:04;20.20;95.40
22526;DHT22;11429;50.842;4.386;2023-04-03T10:06:33;20.20;94.70
22526;DHT22;11429;50.842;4.386;2023-04-03T10:09:04;20.60;94.30
22526;DHT22;11429;50.842;4.386;2023-04-03T10:11:31;19.90;94.20
22526;DHT22;11429;50.842;4.386;2023-04-03T10:14:02;19.50;94.10
22526;DHT22;11429;50.842;4.386;2023-04-03T10:16:42;19.40;93.70
22526;DHT22;11429;50.842;4.386;2023-04-03T10:19:33;19.20;94.00
22526;DHT22;11429;50.842;4.386;2023-04-03T10:32:48;18.60;94.90
22526;DHT22;11429;50.842;4.386;2023-04-03T10:41:07;17.80;94.80
22526;DHT22;11429;50.842;4.386;2023-04-03T10:43:50;18.30;92.10
22526;DHT22;11429;50.842;4.386;2023-04-03T10:46:27;18.40;91.70
22526;DHT22;11429;50.842;4.386;2023-04-03T10:48:58;18.20;91.90
22526;DHT22;11429;50.842;4.386;2023-04-03T10:56:44;18.10;93.20
22526;DHT22;11429;50.842;4.386;2023-04-03T11:01:41;17.90;92.00
22526;DHT22;11429;50.842;4.386;2023-04-03T11:04:10;17.80;90.60
22526;DHT22;11429;50.842;4.386;2023-04-03T11:06:51;18.30;89.80
22526;DHT22;11429;50.842;4.386;2023-04-03T11:09:26;18.10;88.10
22526;DHT22;11429;50.842;4.386;2023-04-03T11:12:01;17.20;88.90
22526;DHT22;11429;50.842;4.386;2023-04-03T11:14:35;16.00;89.90
22526;DHT22;11429;50.842;4.386;2023-04-03T11:17:16;15.70;90.80
22526;DHT22;11429;50.842;4.386;2023-04-03T11:22:27;15.90;90.40
22526;DHT22;11429;50.842;4.386;2023-04-03T11:27:56;16.60;91.20
22526;DHT22;11429;50.842;4.386;2023-04-03T11:35:59;16.10;92.30
22526;DHT22;11429;50.842;4.386;2023-04-03T11:38:37;16.30;92.50
22526;DHT22;11429;50.842;4.386;2023-04-03T11:41:07;17.00;93.40
22526;DHT22;11429;50.842;4.386;2023-04-03T11:43:39;17.30;92.00
22526;DHT22;11429;50.842;4.386;2023-04-03T11:46:07;17.30;91.20
22526;DHT22;11429;50.842;4.386;2023-04-03T11:53:42;16.30;92.00
22526;DHT22;11429;50.842;4.386;2023-04-03T11:56:27;15.90;93.10
22526;DHT22;11429;50.842;4.386;2023-04-03T12:01:48;14.40;93.00
22526;DHT22;11429;50.842;4.386;2023-04-03T12:04:16;14.30;92.20
22526;DHT22;11429;50.842;4.386;2023-04-03T12:09:25;14.30;92.80
22526;DHT22;11429;50.842;4.386;2023-04-03T12:11:53;14.00;93.40
22526;DHT22;11429;50.842;4.386;2023-04-03T12:14:22;13.70;92.90
22526;DHT22;11429;50.842;4.386;2023-04-03T12:16:49;13.80;93.20
22526;DHT22;11429;50.842;4.386;2023-04-03T12:24:27;13.40;93.60
22526;DHT22;11429;50.842;4.386;2023-04-03T12:27:22;13.50;93.10
22526;DHT22;11429;50.842;4.386;2023-04-03T12:29:59;13.40;92.10
22526;DHT22;11429;50.842;4.386;2023-04-03T12:41:18;12.60;91.00
22526;DHT22;11429;50.842;4.386;2023-04-03T12:46:48;12.70;91.90
22526;DHT22;11429;50.842;4.386;2023-04-03T12:51:55;12.20;91.40
22526;DHT22;11429;50.842;4.386;2023-04-03T12:59:40;12.00;91.80
22526;DHT22;11429;50.842;4.386;2023-04-03T13:02:25;12.00;91.50
22526;DHT22;11429;50.842;4.386;2023-04-03T13:04:57;12.00;91.90
22526;DHT22;11429;50.842;4.386;2023-04-03T13:07:32;12.20;92.50
22526;DHT22;11429;50.842;4.386;2023-04-03T13:09:59;12.00;91.70
22526;DHT22;11429;50.842;4.386;2023-04-03T13:12:26;12.10;90.70
22526;DHT22;11429;50.842;4.386;2023-04-03T13:14:54;11.60;91.70
22526;DHT22;11429;50.842;4.386;2023-04-03T13:17:20;11.60;91.90
22526;DHT22;11429;50.842;4.386;2023-04-03T13:19:47;11.60;91.20
22526;DHT22;11429;50.842;4.386;2023-04-03T13:24:54;11.70;90.70
22526;DHT22;11429;50.842;4.386;2023-04-03T13:27:22;11.60;90.40
22526;DHT22;11429;50.842;4.386;2023-04-03T13:29:57;11.40;90.50
22526;DHT22;11429;50.842;4.386;2023-04-03T13:32:25;11.40;90.50
22526;DHT22;11429;50.842;4.386;2023-04-03T13:34:52;11.30;90.20
22526;DHT22;11429;50.842;4.386;2023-04-03T13:37:28;11.20;90.80
22526;DHT22;11429;50.842;4.386;2023-04-03T13:42:30;11.50;89.50
22526;DHT22;11429;50.842;4.386;2023-04-03T13:47:43;11.30;89.30
22526;DHT22;11429;50.842;4.386;2023-04-03T13:52:45;11.00;90.90
22526;DHT22;11429;50.842;4.386;2023-04-03T13:55:33;11.20;92.10
22526;DHT22;11429;50.842;4.386;2023-04-03T14:00:58;11.60;91.20
22526;DHT22;11429;50.842;4.386;2023-04-03T14:03:42;11.50;91.40
22526;DHT22;11429;50.842;4.386;2023-04-03T14:06:14;11.60;91.30
22526;DHT22;11429;50.842;4.386;2023-04-03T14:08:41;11.60;91.50
22526;DHT22;11429;50.842;4.386;2023-04-03T14:11:18;11.50;92.70
22526;DHT22;11429;50.842;4.386;2023-04-03T14:13:45;11.50;93.00
22526;DHT22;11429;50.842;4.386;2023-04-03T14:16:20;11.30;92.80
22526;DHT22;11429;50.842;4.386;2023-04-03T14:18:47;11.30;91.50
22526;DHT22;11429;50.842;4.386;2023-04-03T14:21:19;11.20;92.10
22526;DHT22;11429;50.842;4.386;2023-04-03T14:23:45;11.20;92.20
22526;DHT22;11429;50.842;4.386;2023-04-03T14:26:42;11.30;91.40
22526;DHT22;11429;50.842;4.386;2023-04-03T14:29:10;11.30;92.10
22526;DHT22;11429;50.842;4.386;2023-04-03T14:31:37;11.30;92.70
22526;DHT22;11429;50.842;4.386;2023-04-03T14:34:15;11.00;92.10
22526;DHT22;11429;50.842;4.386;2023-04-03T14:36:49;11.30;92.10
22526;DHT22;11429;50.842;4.386;2023-04-03T14:39:35;11.40;91.40
22526;DHT22;11429;50.842;4.386;2023-04-03T14:42:22;11.50;91.60
22526;DHT22;11429;50.842;4.386;2023-04-03T14:44:49;11.40;91.60
22526;DHT22;11429;50.842;4.386;2023-04-03T14:50:20;11.30;93.60
22526;DHT22;11429;50.842;4.386;2023-04-03T14:52:47;11.40;91.50
22526;DHT22;11429;50.842;4.386;2023-04-03T14:55:18;11.20;91.90
22526;DHT22;11429;50.842;4.386;2023-04-03T14:57:45;11.20;93.10
22526;DHT22;11429;50.842;4.386;2023-04-03T15:00:19;11.10;92.50
22526;DHT22;11429;50.842;4.386;2023-04-03T15:02:45;11.10;92.40
22526;DHT22;11429;50.842;4.386;2023-04-03T15:05:13;11.20;92.70
22526;DHT22;11429;50.842;4.386;2023-04-03T15:07:43;11.30;93.50
22526;DHT22;11429;50.842;4.386;2023-04-03T15:10:26;11.20;92.00
22526;DHT22;11429;50.842;4.386;2023-04-03T15:12:53;11.30;92.20
22526;DHT22;11429;50.842;4.386;2023-04-03T15:15:20;11.20;91.70
22526;DHT22;11429;50.842;4.386;2023-04-03T15:17:55;11.00;91.60
22526;DHT22;11429;50.842;4.386;2023-04-03T15:20:25;11.10;91.80
22526;DHT22;11429;50.842;4.386;2023-04-03T15:22:52;11.00;91.70
22526;DHT22;11429;50.842;4.386;2023-04-03T15:25:18;11.00;91.90
22526;DHT22;11429;50.842;4.386;2023-04-03T15:27:44;11.00;92.70
22526;DHT22;11429;50.842;4.386;2023-04-03T15:30:17;10.90;91.30
22526;DHT22;11429;50.842;4.386;2023-04-03T15:32:44;11.00;91.20
22526;DHT22;11429;50.842;4.386;2023-04-03T15:35:10;11.10;91.50
22526;DHT22;11429;50.842;4.386;2023-04-03T15:37:36;11.00;91.40
22526;DHT22;11429;50.842;4.386;2023-04-03T15:40:04;10.90;91.00
22526;DHT22;11429;50.842;4.386;2023-04-03T15:42:30;10.80;91.30
22526;DHT22;11429;50.842;4.386;2023-04-03T15:44:55;10.80;91.60
22526;DHT22;11429;50.842;4.386;2023-04-03T15:47:21;10.60;91.50
22526;DHT22;11429;50.842;4.386;2023-04-03T15:49:47;10.70;91.50
22526;DHT22;11429;50.842;4.386;2023-04-03T15:52:13;10.90;91.70
22526;DHT22;11429;50.842;4.386;2023-04-03T15:54:39;11.00;91.50
22526;DHT22;11429;50.842;4.386;2023-04-03T15:57:05;11.00;91.70
22526;DHT22;11429;50.842;4.386;2023-04-03T15:59:31;11.10;92.20
22526;DHT22;11429;50.842;4.386;2023-04-03T16:09:04;11.10;93.30
22526;DHT22;11429;50.842;4.386;2023-04-03T16:11:35;10.90;93.90
22526;DHT22;11429;50.842;4.386;2023-04-03T16:14:03;10.80;93.90
22526;DHT22;11429;50.842;4.386;2023-04-03T16:16:29;10.60;94.10
22526;DHT22;11429;50.842;4.386;2023-04-03T16:18:56;10.70;95.00
22526;DHT22;11429;50.842;4.386;2023-04-03T16:21:22;10.80;94.70
22526;DHT22;11429;50.842;4.386;2023-04-03T16:23:49;11.00;95.60
22526;DHT22;11429;50.842;4.386;2023-04-03T16:26:15;11.00;95.20
22526;DHT22;11429;50.842;4.386;2023-04-03T16:28:40;11.20;94.70
22526;DHT22;11429;50.842;4.386;2023-04-03T16:31:07;11.00;95.20
22526;DHT22;11429;50.842;4.386;2023-04-03T16:33:33;11.00;95.90
22526;DHT22;11429;50.842;4.386;2023-04-03T16:35:59;10.90;95.00
22526;DHT22;11429;50.842;4.386;2023-04-03T16:38:25;11.00;94.30
22526;DHT22;11429;50.842;4.386;2023-04-03T16:40:51;11.00;94.80
22526;DHT22;11429;50.842;4.386;2023-04-03T16:43:22;10.80;95.80
22526;DHT22;11429;50.842;4.386;2023-04-03T16:45:48;10.70;95.70
22526;DHT22;11429;50.842;4.386;2023-04-03T16:48:14;10.50;96.00
22526;DHT22;11429;50.842;4.386;2023-04-03T16:50:40;10.60;96.40
22526;DHT22;11429;50.842;4.386;2023-04-03T16:53:05;10.60;96.10
22526;DHT22;11429;50.842;4.386;2023-04-03T16:55:35;10.60;96.00
22526;DHT22;11429;50.842;4.386;2023-04-03T16:58:01;10.50;96.20
22526;DHT22;11429;50.842;4.386;2023-04-03T17:00:30;10.30;96.80
22526;DHT22;11429;50.842;4.386;2023-04-03T17:02:56;10.60;96.50
22526;DHT22;11429;50.842;4.386;2023-04-03T17:05:22;10.70;96.80
22526;DHT22;11429;50.842;4.386;2023-04-03T17:07:50;10.50;96.70
22526;DHT22;11429;50.842;4.386;2023-04-03T17:10:16;10.50;96.30
22526;DHT22;11429;50.842;4.386;2023-04-03T17:12:42;10.60;96.60
22526;DHT22;11429;50.842;4.386;2023-04-03T17:15:08;10.70;96.90
22526;DHT22;11429;50.842;4.386;2023-04-03T17:17:34;10.70;96.80
22526;DHT22;11429;50.842;4.386;2023-04-03T17:20:00;10.60;97.20
22526;DHT22;11429;50.842;4.386;2023-04-03T17:22:26;10.60;96.70
22526;DHT22;11429;50.842;4.386;2023-04-03T17:24:52;10.50;96.50
22526;DHT22;11429;50.842;4.386;2023-04-03T17:27:18;10.50;97.10
22526;DHT22;11429;50.842;4.386;2023-04-03T17:29:44;10.50;96.90
22526;DHT22;11429;50.842;4.386;2023-04-03T17:32:09;10.50;97.30
22526;DHT22;11429;50.842;4.386;2023-04-03T17:34:35;10.40;97.20
22526;DHT22;11429;50.842;4.386;2023-04-03T17:37:01;10.30;97.20
22526;DHT22;11429;50.842;4.386;2023-04-03T17:39:27;10.20;97.80
22526;DHT22;11429;50.842;4.386;2023-04-03T17:41:53;10.20;98.00
22526;DHT22;11429;50.842;4.386;2023-04-03T17:44:20;10.50;98.10
22526;DHT22;11429;50.842;4.386;2023-04-03T17:46:45;10.40;97.40
22526;DHT22;11429;50.842;4.386;2023-04-03T17:49:11;10.30;97.50
22526;DHT22;11429;50.842;4.386;2023-04-03T17:51:40;10.20;97.80